OIII/THR METAR and TAF weather

Enter ICAO airport designator
Station Type Date Time Source
OIII METAR 2020/04/09 10:30 UTC NOAA

OIII 091030Z 03004KT 4000 -RA BR SCT025 FEW030CB OVC080 04/02 Q1022 A3019


Station Type Date Time Source
OIII Decoded METAR 2020/04/09 10:30 UTC NOAA

Tehran-Mehrabad, Iran (OIII) 35-41N 051-21E 1191M
Apr 09, 2020 - 06:30 AM EDT / 2020.04.09 1030 UTC
Wind: from the NNE (030 degrees) at 5 MPH (4 KT):0
Visibility: 2 mile(s):0
Sky conditions: overcast
Weather: light rain; mist; Cumulonimbus clouds observed
Temperature: 39 F (4 C)
Dew Point: 35 F (2 C)
Relative Humidity: 86%
Pressure (altimeter): 30.19 in. Hg (1022 hPa)
ob: OIII 091030Z 03004KT 4000 -RA BR SCT025 FEW030CB OVC080 04/02 Q1022 A3019
cycle: 10

Station Type Date Time Source
OIII TAF 2020/04/09 06:39 UTC NOAA

TAF OIII 090530Z 0906/1012 12008KT 5000 RA BR FEW035CB SCT040 OVC100
TEMPO 0906/0909 3000 SNRA BR SCT025 FEW030CB OVC080
TEMPO 0909/0912 09014KT 3000 TSRA SCT025CB SCT030 OVC080
BECMG 0912/0914 3000 TS/SHRA BR BKN020 SCT030CB OVC090
TEMPO 0918/1003 1500 TS/SHRA
TEMPO 1006/1012 12016KT 3000 TSRA SCT025CB SCT030 OVC080

Example: see airport list